sensor_id;sensor_type;location;lat;lon;timestamp;temperature;humidity
4874;DHT22;2451;49.970;9.068;2023-02-01T00:01:09;5.30;99.90
4874;DHT22;2451;49.970;9.068;2023-02-01T00:03:35;5.30;99.90
4874;DHT22;2451;49.970;9.068;2023-02-01T00:06:00;5.30;99.90
4874;DHT22;2451;49.970;9.068;2023-02-01T00:08:26;5.20;99.90
4874;DHT22;2451;49.970;9.068;2023-02-01T00:11:01;5.20;99.90
4874;DHT22;2451;49.970;9.068;2023-02-01T00:13:30;5.30;99.90
4874;DHT22;2451;49.970;9.068;2023-02-01T00:16:17;5.30;99.90
4874;DHT22;2451;49.970;9.068;2023-02-01T00:18:42;5.30;99.90
4874;DHT22;2451;49.970;9.068;2023-02-01T00:21:07;5.30;99.90
4874;DHT22;2451;49.970;9.068;2023-02-01T00:23:36;5.30;99.90
4874;DHT22;2451;49.970;9.068;2023-02-01T00:26:03;5.30;99.90
4874;DHT22;2451;49.970;9.068;2023-02-01T00:28:29;5.30;99.90
4874;DHT22;2451;49.970;9.068;2023-02-01T00:30:58;5.30;99.90
4874;DHT22;2451;49.970;9.068;2023-02-01T00:33:24;5.30;99.90
4874;DHT22;2451;49.970;9.068;2023-02-01T00:35:49;5.30;99.90
4874;DHT22;2451;49.970;9.068;2023-02-01T00:38:15;5.30;99.90
4874;DHT22;2451;49.970;9.068;2023-02-01T00:40:40;5.30;99.90
4874;DHT22;2451;49.970;9.068;2023-02-01T00:43:06;5.40;99.90
4874;DHT22;2451;49.970;9.068;2023-02-01T00:45:31;5.40;99.90
4874;DHT22;2451;49.970;9.068;2023-02-01T00:47:56;5.40;99.90
4874;DHT22;2451;49.970;9.068;2023-02-01T00:50:22;5.40;99.90
4874;DHT22;2451;49.970;9.068;2023-02-01T00:52:47;5.50;99.90
4874;DHT22;2451;49.970;9.068;2023-02-01T00:55:13;5.50;99.90
4874;DHT22;2451;49.970;9.068;2023-02-01T00:57:38;5.50;99.90
4874;DHT22;2451;49.970;9.068;2023-02-01T01:00:04;5.50;99.90
4874;DHT22;2451;49.970;9.068;2023-02-01T01:02:29;5.50;99.90
4874;DHT22;2451;49.970;9.068;2023-02-01T01:04:55;5.50;99.90
4874;DHT22;2451;49.970;9.068;2023-02-01T01:07:20;5.50;99.90
4874;DHT22;2451;49.970;9.068;2023-02-01T01:09:46;5.40;99.90
4874;DHT22;2451;49.970;9.068;2023-02-01T01:12:11;5.40;99.90
4874;DHT22;2451;49.970;9.068;2023-02-01T01:14:37;5.40;99.90
4874;DHT22;2451;49.970;9.068;2023-02-01T01:17:02;5.40;99.90
4874;DHT22;2451;49.970;9.068;2023-02-01T01:19:28;5.40;99.90
4874;DHT22;2451;49.970;9.068;2023-02-01T01:21:53;5.40;99.90
4874;DHT22;2451;49.970;9.068;2023-02-01T01:24:19;5.40;99.90
4874;DHT22;2451;49.970;9.068;2023-02-01T01:26:44;5.40;99.90
4874;DHT22;2451;49.970;9.068;2023-02-01T01:29:10;5.30;99.90
4874;DHT22;2451;49.970;9.068;2023-02-01T01:31:36;5.40;99.90
4874;DHT22;2451;49.970;9.068;2023-02-01T01:34:01;5.30;99.90
4874;DHT22;2451;49.970;9.068;2023-02-01T01:36:27;5.40;99.90
4874;DHT22;2451;49.970;9.068;2023-02-01T01:38:53;5.40;99.90
4874;DHT22;2451;49.970;9.068;2023-02-01T01:41:19;5.40;99.90
4874;DHT22;2451;49.970;9.068;2023-02-01T01:43:53;5.40;99.90
4874;DHT22;2451;49.970;9.068;2023-02-01T01:46:20;5.40;99.90
4874;DHT22;2451;49.970;9.068;2023-02-01T01:48:48;5.40;99.90
4874;DHT22;2451;49.970;9.068;2023-02-01T01:51:14;5.40;99.90
4874;DHT22;2451;49.970;9.068;2023-02-01T01:53:48;5.40;99.90
4874;DHT22;2451;49.970;9.068;2023-02-01T01:56:14;5.40;99.90
4874;DHT22;2451;49.970;9.068;2023-02-01T01:58:41;5.40;99.90
4874;DHT22;2451;49.970;9.068;2023-02-01T02:01:06;5.30;99.90
4874;DHT22;2451;49.970;9.068;2023-02-01T02:03:34;5.30;99.90
4874;DHT22;2451;49.970;9.068;2023-02-01T02:06:00;5.30;99.90
4874;DHT22;2451;49.970;9.068;2023-02-01T02:08:27;5.40;99.90
4874;DHT22;2451;49.970;9.068;2023-02-01T02:10:53;5.40;99.90
4874;DHT22;2451;49.970;9.068;2023-02-01T02:13:28;5.40;99.90
4874;DHT22;2451;49.970;9.068;2023-02-01T02:16:14;5.40;99.90
4874;DHT22;2451;49.970;9.068;2023-02-01T02:18:51;5.40;99.90
4874;DHT22;2451;49.970;9.068;2023-02-01T02:21:18;5.40;99.90
4874;DHT22;2451;49.970;9.068;2023-02-01T02:23:57;5.30;99.90
4874;DHT22;2451;49.970;9.068;2023-02-01T02:31:30;5.40;99.90
4874;DHT22;2451;49.970;9.068;2023-02-01T02:36:55;5.40;99.90
4874;DHT22;2451;49.970;9.068;2023-02-01T02:42:00;5.40;99.90
4874;DHT22;2451;49.970;9.068;2023-02-01T02:44:47;5.40;99.90
4874;DHT22;2451;49.970;9.068;2023-02-01T02:47:40;5.40;99.90
4874;DHT22;2451;49.970;9.068;2023-02-01T02:53:03;5.40;99.90
4874;DHT22;2451;49.970;9.068;2023-02-01T02:55:48;5.40;99.90
4874;DHT22;2451;49.970;9.068;2023-02-01T02:58:15;5.40;99.90
4874;DHT22;2451;49.970;9.068;2023-02-01T03:01:00;5.40;99.90
4874;DHT22;2451;49.970;9.068;2023-02-01T03:03:44;5.40;99.90
4874;DHT22;2451;49.970;9.068;2023-02-01T03:06:28;5.40;99.90
4874;DHT22;2451;49.970;9.068;2023-02-01T03:08:57;5.30;99.90
4874;DHT22;2451;49.970;9.068;2023-02-01T03:11:23;5.30;99.90
4874;DHT22;2451;49.970;9.068;2023-02-01T03:14:09;5.30;99.90
4874;DHT22;2451;49.970;9.068;2023-02-01T03:16:40;5.30;99.90
4874;DHT22;2451;49.970;9.068;2023-02-01T03:21:38;5.30;99.90
4874;DHT22;2451;49.970;9.068;2023-02-01T03:24:08;5.20;99.90
4874;DHT22;2451;49.970;9.068;2023-02-01T03:26:38;5.20;99.90
4874;DHT22;2451;49.970;9.068;2023-02-01T03:29:14;5.20;99.90
4874;DHT22;2451;49.970;9.068;2023-02-01T03:31:41;5.20;99.90
4874;DHT22;2451;49.970;9.068;2023-02-01T03:34:07;5.20;99.90
4874;DHT22;2451;49.970;9.068;2023-02-01T03:36:37;5.20;99.90
4874;DHT22;2451;49.970;9.068;2023-02-01T03:39:07;5.20;99.90
4874;DHT22;2451;49.970;9.068;2023-02-01T03:41:40;5.10;99.90
4874;DHT22;2451;49.970;9.068;2023-02-01T03:44:17;5.10;99.90
4874;DHT22;2451;49.970;9.068;2023-02-01T03:46:49;5.10;99.90
4874;DHT22;2451;49.970;9.068;2023-02-01T03:49:24;5.10;99.90
4874;DHT22;2451;49.970;9.068;2023-02-01T03:51:51;5.10;99.90
4874;DHT22;2451;49.970;9.068;2023-02-01T03:54:17;5.00;99.90
4874;DHT22;2451;49.970;9.068;2023-02-01T03:56:43;5.10;99.90
4874;DHT22;2451;49.970;9.068;2023-02-01T03:59:10;5.10;99.90
4874;DHT22;2451;49.970;9.068;2023-02-01T04:01:35;5.00;99.90
4874;DHT22;2451;49.970;9.068;2023-02-01T04:04:01;5.10;99.90
4874;DHT22;2451;49.970;9.068;2023-02-01T04:06:26;5.10;99.90
4874;DHT22;2451;49.970;9.068;2023-02-01T04:08:52;5.10;99.90
4874;DHT22;2451;49.970;9.068;2023-02-01T04:11:17;5.00;99.90
4874;DHT22;2451;49.970;9.068;2023-02-01T04:13:43;5.00;99.90
4874;DHT22;2451;49.970;9.068;2023-02-01T04:16:09;5.00;99.90
4874;DHT22;2451;49.970;9.068;2023-02-01T04:18:34;5.00;99.90
4874;DHT22;2451;49.970;9.068;2023-02-01T04:21:00;4.90;99.90
4874;DHT22;2451;49.970;9.068;2023-02-01T04:23:27;4.90;99.90
4874;DHT22;2451;49.970;9.068;2023-02-01T04:25:53;4.90;99.90
4874;DHT22;2451;49.970;9.068;2023-02-01T04:28:18;4.90;99.90
4874;DHT22;2451;49.970;9.068;2023-02-01T04:30:43;4.90;99.90
4874;DHT22;2451;49.970;9.068;2023-02-01T04:33:10;4.90;99.90
4874;DHT22;2451;49.970;9.068;2023-02-01T04:35:39;5.00;99.90
4874;DHT22;2451;49.970;9.068;2023-02-01T04:38:04;5.00;99.90
4874;DHT22;2451;49.970;9.068;2023-02-01T04:40:30;5.00;99.90
4874;DHT22;2451;49.970;9.068;2023-02-01T04:42:55;5.00;99.90
4874;DHT22;2451;49.970;9.068;2023-02-01T04:45:21;5.00;99.90
4874;DHT22;2451;49.970;9.068;2023-02-01T04:47:46;5.00;99.90
4874;DHT22;2451;49.970;9.068;2023-02-01T04:50:13;5.00;99.90
4874;DHT22;2451;49.970;9.068;2023-02-01T04:52:39;5.10;99.90
4874;DHT22;2451;49.970;9.068;2023-02-01T04:55:05;5.10;99.90
4874;DHT22;2451;49.970;9.068;2023-02-01T04:57:30;5.10;99.90
4874;DHT22;2451;49.970;9.068;2023-02-01T04:59:56;5.10;99.90
4874;DHT22;2451;49.970;9.068;2023-02-01T05:02:21;5.20;99.90
4874;DHT22;2451;49.970;9.068;2023-02-01T05:04:46;5.10;99.90
4874;DHT22;2451;49.970;9.068;2023-02-01T05:07:12;5.10;99.90
4874;DHT22;2451;49.970;9.068;2023-02-01T05:09:37;5.10;99.90
4874;DHT22;2451;49.970;9.068;2023-02-01T05:12:03;5.20;99.90
4874;DHT22;2451;49.970;9.068;2023-02-01T05:14:47;5.20;99.90
4874;DHT22;2451;49.970;9.068;2023-02-01T05:17:13;5.20;99.90
4874;DHT22;2451;49.970;9.068;2023-02-01T05:19:38;5.20;99.90
4874;DHT22;2451;49.970;9.068;2023-02-01T05:22:03;5.30;99.90
4874;DHT22;2451;49.970;9.068;2023-02-01T05:24:29;5.30;99.90
4874;DHT22;2451;49.970;9.068;2023-02-01T05:26:54;5.30;99.90
4874;DHT22;2451;49.970;9.068;2023-02-01T05:29:20;5.30;99.90
4874;DHT22;2451;49.970;9.068;2023-02-01T05:31:46;5.30;99.90
4874;DHT22;2451;49.970;9.068;2023-02-01T05:34:12;5.30;99.90
4874;DHT22;2451;49.970;9.068;2023-02-01T05:36:37;5.30;99.90
4874;DHT22;2451;49.970;9.068;2023-02-01T05:39:03;5.30;99.90
4874;DHT22;2451;49.970;9.068;2023-02-01T05:41:28;5.30;99.90
4874;DHT22;2451;49.970;9.068;2023-02-01T05:43:54;5.40;99.90
4874;DHT22;2451;49.970;9.068;2023-02-01T05:46:19;5.40;99.90
4874;DHT22;2451;49.970;9.068;2023-02-01T05:48:45;5.40;99.90
4874;DHT22;2451;49.970;9.068;2023-02-01T05:51:10;5.40;99.90
4874;DHT22;2451;49.970;9.068;2023-02-01T05:53:36;5.40;99.90
4874;DHT22;2451;49.970;9.068;2023-02-01T05:56:01;5.40;99.90
4874;DHT22;2451;49.970;9.068;2023-02-01T05:58:27;5.50;99.90
4874;DHT22;2451;49.970;9.068;2023-02-01T06:00:52;5.50;99.90
4874;DHT22;2451;49.970;9.068;2023-02-01T06:03:18;5.50;99.90
4874;DHT22;2451;49.970;9.068;2023-02-01T06:05:44;5.50;99.90
4874;DHT22;2451;49.970;9.068;2023-02-01T06:08:09;5.50;99.90
4874;DHT22;2451;49.970;9.068;2023-02-01T06:10:35;5.40;99.90
4874;DHT22;2451;49.970;9.068;2023-02-01T06:13:00;5.40;99.90
4874;DHT22;2451;49.970;9.068;2023-02-01T06:15:26;5.50;99.90
4874;DHT22;2451;49.970;9.068;2023-02-01T06:17:51;5.50;99.90
4874;DHT22;2451;49.970;9.068;2023-02-01T06:20:17;5.50;99.90
4874;DHT22;2451;49.970;9.068;2023-02-01T06:22:42;5.50;99.90
4874;DHT22;2451;49.970;9.068;2023-02-01T06:25:08;5.50;99.90
4874;DHT22;2451;49.970;9.068;2023-02-01T06:27:34;5.50;99.90
4874;DHT22;2451;49.970;9.068;2023-02-01T06:30:00;5.50;99.90
4874;DHT22;2451;49.970;9.068;2023-02-01T06:32:26;5.40;99.90
4874;DHT22;2451;49.970;9.068;2023-02-01T06:34:51;5.40;99.90
4874;DHT22;2451;49.970;9.068;2023-02-01T06:37:21;5.40;99.90
4874;DHT22;2451;49.970;9.068;2023-02-01T06:39:48;5.40;99.90
4874;DHT22;2451;49.970;9.068;2023-02-01T06:42:14;5.40;99.90
4874;DHT22;2451;49.970;9.068;2023-02-01T06:44:39;5.30;99.90
4874;DHT22;2451;49.970;9.068;2023-02-01T06:47:05;5.30;99.90
4874;DHT22;2451;49.970;9.068;2023-02-01T06:49:31;5.20;99.90
4874;DHT22;2451;49.970;9.068;2023-02-01T06:51:57;5.20;99.90
4874;DHT22;2451;49.970;9.068;2023-02-01T06:54:25;5.20;99.90
4874;DHT22;2451;49.970;9.068;2023-02-01T06:56:51;5.10;99.90
4874;DHT22;2451;49.970;9.068;2023-02-01T06:59:16;5.10;99.90
4874;DHT22;2451;49.970;9.068;2023-02-01T07:01:42;5.10;99.90
4874;DHT22;2451;49.970;9.068;2023-02-01T07:04:09;5.10;99.90
4874;DHT22;2451;49.970;9.068;2023-02-01T07:06:34;5.10;99.90
4874;DHT22;2451;49.970;9.068;2023-02-01T07:09:00;5.10;99.90
4874;DHT22;2451;49.970;9.068;2023-02-01T07:11:25;5.10;99.90
4874;DHT22;2451;49.970;9.068;2023-02-01T07:13:53;5.10;99.90
4874;DHT22;2451;49.970;9.068;2023-02-01T07:16:19;5.00;99.90
4874;DHT22;2451;49.970;9.068;2023-02-01T07:18:45;5.00;99.90
4874;DHT22;2451;49.970;9.068;2023-02-01T07:21:10;5.00;99.90
4874;DHT22;2451;49.970;9.068;2023-02-01T07:23:36;5.10;99.90
4874;DHT22;2451;49.970;9.068;2023-02-01T07:26:02;5.00;99.90
4874;DHT22;2451;49.970;9.068;2023-02-01T07:28:29;5.00;99.90
4874;DHT22;2451;49.970;9.068;2023-02-01T07:30:55;5.10;99.90
4874;DHT22;2451;49.970;9.068;2023-02-01T07:33:21;5.20;99.90
4874;DHT22;2451;49.970;9.068;2023-02-01T07:35:47;5.50;99.90
4874;DHT22;2451;49.970;9.068;2023-02-01T07:38:13;5.80;99.90
4874;DHT22;2451;49.970;9.068;2023-02-01T07:40:39;6.20;99.90
4874;DHT22;2451;49.970;9.068;2023-02-01T07:43:04;6.50;99.90
4874;DHT22;2451;49.970;9.068;2023-02-01T07:45:31;6.80;99.90
4874;DHT22;2451;49.970;9.068;2023-02-01T07:47:57;7.10;99.90
4874;DHT22;2451;49.970;9.068;2023-02-01T07:50:22;7.30;99.90
4874;DHT22;2451;49.970;9.068;2023-02-01T07:52:47;7.30;99.90
4874;DHT22;2451;49.970;9.068;2023-02-01T07:55:13;7.30;99.90
4874;DHT22;2451;49.970;9.068;2023-02-01T07:57:38;7.10;99.90
4874;DHT22;2451;49.970;9.068;2023-02-01T08:00:04;6.90;99.90
4874;DHT22;2451;49.970;9.068;2023-02-01T08:02:48;6.70;99.90
4874;DHT22;2451;49.970;9.068;2023-02-01T08:05:14;6.70;99.90
4874;DHT22;2451;49.970;9.068;2023-02-01T08:07:39;6.80;99.90
4874;DHT22;2451;49.970;9.068;2023-02-01T08:10:05;7.10;99.90
4874;DHT22;2451;49.970;9.068;2023-02-01T08:12:36;7.10;99.90
4874;DHT22;2451;49.970;9.068;2023-02-01T08:15:01;7.10;99.90
4874;DHT22;2451;49.970;9.068;2023-02-01T08:17:27;7.00;99.90
4874;DHT22;2451;49.970;9.068;2023-02-01T08:19:53;6.80;99.90
4874;DHT22;2451;49.970;9.068;2023-02-01T08:22:19;6.60;99.90
4874;DHT22;2451;49.970;9.068;2023-02-01T08:24:47;6.40;99.90
4874;DHT22;2451;49.970;9.068;2023-02-01T08:27:12;6.40;99.90
4874;DHT22;2451;49.970;9.068;2023-02-01T08:29:38;6.30;99.90
4874;DHT22;2451;49.970;9.068;2023-02-01T08:32:03;6.30;99.90
4874;DHT22;2451;49.970;9.068;2023-02-01T08:34:29;6.20;99.90
4874;DHT22;2451;49.970;9.068;2023-02-01T08:36:54;6.20;99.90
4874;DHT22;2451;49.970;9.068;2023-02-01T08:39:24;6.20;99.90
4874;DHT22;2451;49.970;9.068;2023-02-01T08:41:49;6.10;99.90
4874;DHT22;2451;49.970;9.068;2023-02-01T08:44:35;6.10;99.90
4874;DHT22;2451;49.970;9.068;2023-02-01T08:47:01;6.10;99.90
4874;DHT22;2451;49.970;9.068;2023-02-01T08:49:26;6.10;99.90
4874;DHT22;2451;49.970;9.068;2023-02-01T08:51:51;6.10;99.90
4874;DHT22;2451;49.970;9.068;2023-02-01T08:54:17;6.10;99.90
4874;DHT22;2451;49.970;9.068;2023-02-01T08:56:42;6.20;99.90
4874;DHT22;2451;49.970;9.068;2023-02-01T08:59:08;6.20;99.90
4874;DHT22;2451;49.970;9.068;2023-02-01T09:01:33;6.20;99.90
4874;DHT22;2451;49.970;9.068;2023-02-01T09:03:59;6.20;99.90
4874;DHT22;2451;49.970;9.068;2023-02-01T09:06:24;6.30;99.90
4874;DHT22;2451;49.970;9.068;2023-02-01T09:08:49;6.30;99.90
4874;DHT22;2451;49.970;9.068;2023-02-01T09:11:16;6.20;99.90
4874;DHT22;2451;49.970;9.068;2023-02-01T09:13:42;6.30;99.90
4874;DHT22;2451;49.970;9.068;2023-02-01T09:16:07;6.30;99.90
4874;DHT22;2451;49.970;9.068;2023-02-01T09:18:34;6.30;99.90
4874;DHT22;2451;49.970;9.068;2023-02-01T09:21:03;6.30;99.90
4874;DHT22;2451;49.970;9.068;2023-02-01T09:23:29;6.30;99.90
4874;DHT22;2451;49.970;9.068;2023-02-01T09:25:54;6.30;99.90
4874;DHT22;2451;49.970;9.068;2023-02-01T09:28:23;6.30;99.90
4874;DHT22;2451;49.970;9.068;2023-02-01T09:30:49;6.40;99.90
4874;DHT22;2451;49.970;9.068;2023-02-01T09:33:14;6.40;99.90
4874;DHT22;2451;49.970;9.068;2023-02-01T09:35:39;6.40;99.90
4874;DHT22;2451;49.970;9.068;2023-02-01T09:38:05;6.50;99.90
4874;DHT22;2451;49.970;9.068;2023-02-01T09:40:30;6.50;99.90
4874;DHT22;2451;49.970;9.068;2023-02-01T09:43:00;6.50;99.90
4874;DHT22;2451;49.970;9.068;2023-02-01T09:48:14;6.50;99.90
4874;DHT22;2451;49.970;9.068;2023-02-01T09:50:42;6.40;99.90
4874;DHT22;2451;49.970;9.068;2023-02-01T09:55:53;6.40;99.90
4874;DHT22;2451;49.970;9.068;2023-02-01T09:58:33;6.40;99.90
4874;DHT22;2451;49.970;9.068;2023-02-01T10:01:01;6.40;99.90
4874;DHT22;2451;49.970;9.068;2023-02-01T10:03:28;6.40;99.90
4874;DHT22;2451;49.970;9.068;2023-02-01T10:06:04;6.40;99.90
4874;DHT22;2451;49.970;9.068;2023-02-01T10:20:09;6.40;99.90
4874;DHT22;2451;49.970;9.068;2023-02-01T10:22:33;6.40;99.90
4874;DHT22;2451;49.970;9.068;2023-02-01T10:25:47;6.40;99.90
4874;DHT22;2451;49.970;9.068;2023-02-01T10:27:51;6.40;99.90
4874;DHT22;2451;49.970;9.068;2023-02-01T10:30:21;6.40;99.90
4874;DHT22;2451;49.970;9.068;2023-02-01T10:32:52;6.50;99.90
4874;DHT22;2451;49.970;9.068;2023-02-01T10:35:30;6.50;99.90
4874;DHT22;2451;49.970;9.068;2023-02-01T10:37:58;6.50;99.90
4874;DHT22;2451;49.970;9.068;2023-02-01T10:40:25;6.50;99.90
4874;DHT22;2451;49.970;9.068;2023-02-01T10:42:52;6.50;99.90
4874;DHT22;2451;49.970;9.068;2023-02-01T10:45:21;6.60;99.90
4874;DHT22;2451;49.970;9.068;2023-02-01T10:47:49;6.60;99.90
4874;DHT22;2451;49.970;9.068;2023-02-01T10:50:17;6.60;99.90
4874;DHT22;2451;49.970;9.068;2023-02-01T10:52:48;6.60;99.90
4874;DHT22;2451;49.970;9.068;2023-02-01T10:55:36;6.70;99.90
4874;DHT22;2451;49.970;9.068;2023-02-01T10:58:07;6.70;99.90
4874;DHT22;2451;49.970;9.068;2023-02-01T11:00:38;6.70;99.90
4874;DHT22;2451;49.970;9.068;2023-02-01T11:03:53;6.70;99.90
4874;DHT22;2451;49.970;9.068;2023-02-01T11:05:53;6.80;99.90
4874;DHT22;2451;49.970;9.068;2023-02-01T11:08:20;6.80;99.90
4874;DHT22;2451;49.970;9.068;2023-02-01T11:10:46;6.80;99.90
4874;DHT22;2451;49.970;9.068;2023-02-01T11:13:13;6.80;99.90
4874;DHT22;2451;49.970;9.068;2023-02-01T11:15:39;6.80;99.90
4874;DHT22;2451;49.970;9.068;2023-02-01T11:18:14;6.80;99.90
4874;DHT22;2451;49.970;9.068;2023-02-01T11:20:40;6.80;99.90
4874;DHT22;2451;49.970;9.068;2023-02-01T11:23:13;6.80;99.90
4874;DHT22;2451;49.970;9.068;2023-02-01T11:25:39;6.80;99.90
4874;DHT22;2451;49.970;9.068;2023-02-01T11:28:12;6.80;99.90
4874;DHT22;2451;49.970;9.068;2023-02-01T11:30:58;6.80;99.90
4874;DHT22;2451;49.970;9.068;2023-02-01T11:33:27;6.80;99.90
4874;DHT22;2451;49.970;9.068;2023-02-01T11:35:55;6.80;99.90
4874;DHT22;2451;49.970;9.068;2023-02-01T11:38:23;6.80;99.90
4874;DHT22;2451;49.970;9.068;2023-02-01T11:40:51;6.80;99.90
4874;DHT22;2451;49.970;9.068;2023-02-01T11:45:42;6.80;99.90
4874;DHT22;2451;49.970;9.068;2023-02-01T11:48:18;6.80;99.90
4874;DHT22;2451;49.970;9.068;2023-02-01T11:50:46;6.70;99.90
4874;DHT22;2451;49.970;9.068;2023-02-01T11:53:36;6.70;99.90
4874;DHT22;2451;49.970;9.068;2023-02-01T11:56:22;6.70;99.90
4874;DHT22;2451;49.970;9.068;2023-02-01T12:01:36;6.70;99.90
4874;DHT22;2451;49.970;9.068;2023-02-01T12:11:45;6.70;99.90
4874;DHT22;2451;49.970;9.068;2023-02-01T12:14:23;6.70;99.90
4874;DHT22;2451;49.970;9.068;2023-02-01T12:27:17;6.80;99.90
4874;DHT22;2451;49.970;9.068;2023-02-01T12:32:51;6.80;99.90
4874;DHT22;2451;49.970;9.068;2023-02-01T12:41:19;6.90;99.90
4874;DHT22;2451;49.970;9.068;2023-02-01T12:46:13;6.80;99.90
4874;DHT22;2451;49.970;9.068;2023-02-01T12:51:14;6.90;99.90
4874;DHT22;2451;49.970;9.068;2023-02-01T12:53:51;6.90;99.90
4874;DHT22;2451;49.970;9.068;2023-02-01T12:59:13;6.90;99.90
4874;DHT22;2451;49.970;9.068;2023-02-01T13:01:42;6.90;99.90
4874;DHT22;2451;49.970;9.068;2023-02-01T13:04:12;6.90;99.90
4874;DHT22;2451;49.970;9.068;2023-02-01T13:06:41;6.80;99.90
4874;DHT22;2451;49.970;9.068;2023-02-01T13:11:53;6.90;99.90
4874;DHT22;2451;49.970;9.068;2023-02-01T13:14:25;6.80;99.90
4874;DHT22;2451;49.970;9.068;2023-02-01T13:16:54;6.80;99.90
4874;DHT22;2451;49.970;9.068;2023-02-01T13:21:51;6.80;99.90
4874;DHT22;2451;49.970;9.068;2023-02-01T13:24:24;6.80;99.90
4874;DHT22;2451;49.970;9.068;2023-02-01T13:26:54;6.80;99.90
4874;DHT22;2451;49.970;9.068;2023-02-01T13:29:20;6.80;99.90
4874;DHT22;2451;49.970;9.068;2023-02-01T13:34:28;6.80;99.90
4874;DHT22;2451;49.970;9.068;2023-02-01T13:39:48;6.80;99.90
4874;DHT22;2451;49.970;9.068;2023-02-01T13:42:17;6.80;99.90
4874;DHT22;2451;49.970;9.068;2023-02-01T13:44:56;6.70;99.90
4874;DHT22;2451;49.970;9.068;2023-02-01T13:49:47;6.70;99.90
4874;DHT22;2451;49.970;9.068;2023-02-01T13:52:22;6.70;99.90
4874;DHT22;2451;49.970;9.068;2023-02-01T13:54:49;6.70;99.90
4874;DHT22;2451;49.970;9.068;2023-02-01T13:57:32;6.70;99.90
4874;DHT22;2451;49.970;9.068;2023-02-01T14:05:03;6.90;99.90
4874;DHT22;2451;49.970;9.068;2023-02-01T14:07:29;6.90;99.90
4874;DHT22;2451;49.970;9.068;2023-02-01T14:09:55;6.90;99.90
4874;DHT22;2451;49.970;9.068;2023-02-01T14:15:17;6.90;99.90
4874;DHT22;2451;49.970;9.068;2023-02-01T14:17:43;6.90;99.90
4874;DHT22;2451;49.970;9.068;2023-02-01T14:23:00;6.90;99.90
4874;DHT22;2451;49.970;9.068;2023-02-01T14:25:25;7.00;99.90
4874;DHT22;2451;49.970;9.068;2023-02-01T14:27:57;7.00;99.90
4874;DHT22;2451;49.970;9.068;2023-02-01T14:30:22;6.90;99.90
4874;DHT22;2451;49.970;9.068;2023-02-01T14:32:48;7.00;99.90
4874;DHT22;2451;49.970;9.068;2023-02-01T14:35:20;7.00;99.90
4874;DHT22;2451;49.970;9.068;2023-02-01T14:37:52;7.00;99.90
4874;DHT22;2451;49.970;9.068;2023-02-01T14:40:25;7.00;99.90
4874;DHT22;2451;49.970;9.068;2023-02-01T14:42:51;7.00;99.90
4874;DHT22;2451;49.970;9.068;2023-02-01T14:55:51;7.10;99.90
4874;DHT22;2451;49.970;9.068;2023-02-01T15:01:06;7.10;99.90
4874;DHT22;2451;49.970;9.068;2023-02-01T15:08:47;7.20;99.90
4874;DHT22;2451;49.970;9.068;2023-02-01T15:11:14;7.20;99.90
4874;DHT22;2451;49.970;9.068;2023-02-01T15:13:40;7.20;99.90
4874;DHT22;2451;49.970;9.068;2023-02-01T15:18:31;7.20;99.90
4874;DHT22;2451;49.970;9.068;2023-02-01T15:21:00;7.20;99.90
4874;DHT22;2451;49.970;9.068;2023-02-01T15:23:27;7.20;99.90
4874;DHT22;2451;49.970;9.068;2023-02-01T15:25:52;7.20;99.90
4874;DHT22;2451;49.970;9.068;2023-02-01T15:28:18;7.20;99.90
4874;DHT22;2451;49.970;9.068;2023-02-01T15:30:57;7.10;99.90
4874;DHT22;2451;49.970;9.068;2023-02-01T15:33:23;7.10;99.90
4874;DHT22;2451;49.970;9.068;2023-02-01T15:35:53;7.10;99.90
4874;DHT22;2451;49.970;9.068;2023-02-01T15:40:55;7.20;99.90
4874;DHT22;2451;49.970;9.068;2023-02-01T15:43:21;7.10;99.90
4874;DHT22;2451;49.970;9.068;2023-02-01T15:45:47;7.10;99.90
4874;DHT22;2451;49.970;9.068;2023-02-01T15:48:19;7.10;99.90
4874;DHT22;2451;49.970;9.068;2023-02-01T15:50:47;7.10;99.90
4874;DHT22;2451;49.970;9.068;2023-02-01T15:53:25;7.10;99.90
4874;DHT22;2451;49.970;9.068;2023-02-01T15:55:55;7.10;99.90
4874;DHT22;2451;49.970;9.068;2023-02-01T15:58:22;7.10;99.90
4874;DHT22;2451;49.970;9.068;2023-02-01T16:00:50;7.10;99.90
4874;DHT22;2451;49.970;9.068;2023-02-01T16:06:01;7.10;99.90
4874;DHT22;2451;49.970;9.068;2023-02-01T16:08:28;7.10;99.90
4874;DHT22;2451;49.970;9.068;2023-02-01T16:10:59;7.10;99.90
4874;DHT22;2451;49.970;9.068;2023-02-01T16:13:26;7.10;99.90
4874;DHT22;2451;49.970;9.068;2023-02-01T16:15:51;7.10;99.90
4874;DHT22;2451;49.970;9.068;2023-02-01T16:18:16;7.10;99.90
4874;DHT22;2451;49.970;9.068;2023-02-01T16:20:42;7.10;99.90
4874;DHT22;2451;49.970;9.068;2023-02-01T16:23:08;7.10;99.90
4874;DHT22;2451;49.970;9.068;2023-02-01T16:25:34;7.10;99.90
4874;DHT22;2451;49.970;9.068;2023-02-01T16:27:59;7.10;99.90
4874;DHT22;2451;49.970;9.068;2023-02-01T16:30:25;7.00;99.90
4874;DHT22;2451;49.970;9.068;2023-02-01T16:32:54;7.00;99.90
4874;DHT22;2451;49.970;9.068;2023-02-01T16:35:30;7.00;99.90
4874;DHT22;2451;49.970;9.068;2023-02-01T16:38:00;7.10;99.90
4874;DHT22;2451;49.970;9.068;2023-02-01T16:40:26;7.10;99.90
4874;DHT22;2451;49.970;9.068;2023-02-01T16:42:52;7.10;99.90
4874;DHT22;2451;49.970;9.068;2023-02-01T16:45:20;7.10;99.90
4874;DHT22;2451;49.970;9.068;2023-02-01T16:47:47;7.10;99.90
4874;DHT22;2451;49.970;9.068;2023-02-01T16:50:14;7.10;99.90
4874;DHT22;2451;49.970;9.068;2023-02-01T16:52:44;7.10;99.90
4874;DHT22;2451;49.970;9.068;2023-02-01T16:55:16;7.10;99.90
4874;DHT22;2451;49.970;9.068;2023-02-01T16:57:42;7.10;99.90
4874;DHT22;2451;49.970;9.068;2023-02-01T17:00:08;7.10;99.90
4874;DHT22;2451;49.970;9.068;2023-02-01T17:02:33;7.10;99.90
4874;DHT22;2451;49.970;9.068;2023-02-01T17:04:59;7.10;99.90
4874;DHT22;2451;49.970;9.068;2023-02-01T17:07:24;7.10;99.90
4874;DHT22;2451;49.970;9.068;2023-02-01T17:09:51;7.10;99.90
4874;DHT22;2451;49.970;9.068;2023-02-01T17:14:48;7.00;99.90
4874;DHT22;2451;49.970;9.068;2023-02-01T17:17:14;7.10;99.90
4874;DHT22;2451;49.970;9.068;2023-02-01T17:19:39;7.10;99.90
4874;DHT22;2451;49.970;9.068;2023-02-01T17:22:05;7.00;99.90
4874;DHT22;2451;49.970;9.068;2023-02-01T17:24:31;7.10;99.90
4874;DHT22;2451;49.970;9.068;2023-02-01T17:26:56;7.10;99.90
4874;DHT22;2451;49.970;9.068;2023-02-01T17:29:22;7.10;99.90
4874;DHT22;2451;49.970;9.068;2023-02-01T17:31:48;7.10;99.90
4874;DHT22;2451;49.970;9.068;2023-02-01T17:34:14;7.10;99.90
4874;DHT22;2451;49.970;9.068;2023-02-01T17:36:41;7.00;99.90
4874;DHT22;2451;49.970;9.068;2023-02-01T17:39:07;7.10;99.90
4874;DHT22;2451;49.970;9.068;2023-02-01T17:41:33;7.10;99.90
4874;DHT22;2451;49.970;9.068;2023-02-01T17:43:59;7.10;99.90
4874;DHT22;2451;49.970;9.068;2023-02-01T17:46:24;7.10;99.90
4874;DHT22;2451;49.970;9.068;2023-02-01T17:48:53;7.00;99.90
4874;DHT22;2451;49.970;9.068;2023-02-01T17:51:19;7.00;99.90
4874;DHT22;2451;49.970;9.068;2023-02-01T17:53:45;7.00;99.90
4874;DHT22;2451;49.970;9.068;2023-02-01T17:56:15;7.00;99.90
4874;DHT22;2451;49.970;9.068;2023-02-01T17:58:41;7.00;99.90
4874;DHT22;2451;49.970;9.068;2023-02-01T18:01:10;7.00;99.90
4874;DHT22;2451;49.970;9.068;2023-02-01T18:03:35;6.90;99.90
4874;DHT22;2451;49.970;9.068;2023-02-01T18:06:01;7.00;99.90
4874;DHT22;2451;49.970;9.068;2023-02-01T18:08:28;7.00;99.90
4874;DHT22;2451;49.970;9.068;2023-02-01T18:10:55;7.00;99.90
4874;DHT22;2451;49.970;9.068;2023-02-01T18:13:23;7.00;99.90
4874;DHT22;2451;49.970;9.068;2023-02-01T18:15:49;7.00;99.90
4874;DHT22;2451;49.970;9.068;2023-02-01T18:18:14;6.90;99.90
4874;DHT22;2451;49.970;9.068;2023-02-01T18:20:40;6.90;99.90
4874;DHT22;2451;49.970;9.068;2023-02-01T18:23:14;6.90;99.90
4874;DHT22;2451;49.970;9.068;2023-02-01T18:25:40;6.90;99.90
4874;DHT22;2451;49.970;9.068;2023-02-01T18:28:05;6.90;99.90